createdAt,value
2023-05-10T03:32:38.096Z,1
2023-05-10T03:39:37.967Z,2
2023-05-10T04:04:37.695Z,88.
2023-05-10T04:05:37.686Z,96.
2023-05-10T04:06:37.708Z,13
2023-05-10T04:07:37.664Z,14
2023-05-10T04:08:37.803Z,168.
2023-05-10T04:09:37.645Z,200.
2023-05-10T04:10:37.634Z,236.
2023-05-10T04:11:37.626Z,240.
2023-05-10T04:12:37.613Z,22
2023-05-10T04:13:37.637Z,24
2023-05-10T04:14:37.587Z,27
2023-05-10T04:15:37.582Z,288.
2023-05-10T04:16:37.677Z,27
2023-05-10T04:17:37.568Z,28
2023-05-10T04:18:37.548Z,36
2023-05-10T04:19:37.530Z,42
2023-05-10T04:20:37.530Z,47
2023-05-10T04:21:37.511Z,52
2023-05-10T04:22:37.506Z,52
2023-05-10T04:23:37.509Z,540.
2023-05-10T04:24:37.508Z,472.
2023-05-10T04:25:37.466Z,420.
2023-05-10T04:26:37.465Z,36
2023-05-10T04:27:37.447Z,30
2023-05-10T04:28:37.444Z,26
2023-05-10T04:29:37.426Z,24
2023-05-10T04:30:37.422Z,26
2023-05-10T04:31:37.416Z,268.
2023-05-10T04:32:37.457Z,33
2023-05-10T04:33:37.389Z,440.
2023-05-10T04:34:37.374Z,52
2023-05-10T04:35:37.359Z,696.
2023-05-10T04:36:37.353Z,724.
2023-05-10T04:37:37.342Z,80
2023-05-10T04:38:37.326Z,65
2023-05-10T04:39:37.314Z,57
2023-05-10T04:40:37.328Z,50
2023-05-10T04:41:37.294Z,52
2023-05-10T04:42:37.286Z,48
2023-05-10T04:43:37.382Z,45
2023-05-10T04:44:37.271Z,44
2023-05-10T04:45:37.248Z,37
2023-05-10T04:46:37.313Z,29
2023-05-10T04:47:37.279Z,44
2023-05-10T04:48:37.220Z,488.
2023-05-10T04:49:37.210Z,476.
2023-05-10T04:50:37.196Z,712.
2023-05-10T04:51:37.189Z,87
2023-05-10T04:52:37.177Z,81
2023-05-10T04:53:37.163Z,78
2023-05-10T04:54:37.154Z,77
2023-05-10T04:55:37.141Z,81
2023-05-10T04:56:37.176Z,90
2023-05-10T04:57:37.121Z,94
2023-05-10T04:58:37.108Z,92
2023-05-10T04:59:37.102Z,75
2023-05-10T05:00:37.085Z,70
2023-05-10T05:01:37.135Z,76
2023-05-10T05:02:37.127Z,81
2023-05-10T05:03:37.115Z,85
2023-05-10T05:04:37.046Z,90
2023-05-10T05:05:37.035Z,96
2023-05-10T05:06:37.029Z,1024.
2023-05-10T05:07:37.009Z,1080.
2023-05-10T05:09:10.926Z,108
2023-05-10T05:10:10.910Z,104
2023-05-10T05:11:10.909Z,105
2023-05-10T05:12:10.939Z,109
2023-05-10T05:13:10.908Z,110
2023-05-10T05:14:10.866Z,108
2023-05-10T05:15:10.860Z,100
2023-05-10T05:16:10.876Z,109
2023-05-10T05:17:10.839Z,89
2023-05-10T05:18:10.887Z,88
2023-05-10T05:19:10.819Z,93
2023-05-10T05:20:10.806Z,856.
2023-05-10T05:21:10.798Z,68
2023-05-10T05:22:10.987Z,65
2023-05-10T05:23:10.784Z,82
2023-05-10T05:24:10.761Z,892.
2023-05-10T05:25:10.784Z,98
2023-05-10T05:26:10.747Z,92
2023-05-10T05:27:10.729Z,102
2023-05-10T05:28:10.739Z,106
2023-05-10T05:29:10.718Z,104
2023-05-10T05:30:10.698Z,118
2023-05-10T05:31:10.723Z,158
2023-05-10T05:32:10.714Z,1884.
2023-05-10T05:33:10.892Z,1776.
2023-05-10T05:34:10.857Z,1696.
2023-05-10T05:35:10.659Z,1820.
2023-05-10T05:36:10.644Z,1896.
2023-05-10T05:37:10.635Z,189
2023-05-10T05:38:10.617Z,201
2023-05-10T05:39:10.604Z,184
2023-05-10T05:40:10.598Z,179
2023-05-10T05:41:10.584Z,156
2023-05-10T05:42:10.570Z,160
2023-05-10T05:43:10.568Z,176
2023-05-10T05:44:10.585Z,188
2023-05-10T05:45:10.540Z,195
2023-05-10T05:46:10.585Z,200
2023-05-10T05:47:10.599Z,2076.
2023-05-10T05:48:10.541Z,249
2023-05-10T05:49:10.499Z,243
2023-05-10T05:50:10.487Z,206
2023-05-10T05:51:10.479Z,1728.
2023-05-10T05:52:10.467Z,157
2023-05-10T05:53:10.471Z,159
2023-05-10T05:54:10.447Z,149
2023-05-10T05:55:10.641Z,138
2023-05-10T05:56:10.425Z,142
2023-05-10T05:57:10.415Z,1456.
2023-05-10T05:58:10.402Z,112
2023-05-10T05:59:10.395Z,126
2023-05-10T06:00:10.419Z,137
2023-05-10T06:01:10.375Z,114
2023-05-10T06:02:10.427Z,128
2023-05-10T06:03:10.429Z,146
2023-05-10T06:04:10.408Z,1828.
2023-05-10T06:05:10.336Z,2092.
2023-05-10T06:06:10.322Z,2576.
2023-05-10T06:07:10.313Z,313
2023-05-10T06:08:10.298Z,438
2023-05-10T06:09:10.301Z,558
2023-05-10T06:10:10.279Z,720
2023-05-10T06:11:10.273Z,848
2023-05-10T06:12:10.275Z,901
2023-05-10T06:13:10.288Z,974
2023-05-10T06:14:10.241Z,1056
2023-05-10T06:15:10.238Z,845
2023-05-10T06:16:10.355Z,10360.
2023-05-10T06:17:10.418Z,820
2023-05-10T06:18:10.247Z,764
2023-05-10T06:19:10.188Z,488
2023-05-10T06:20:10.176Z,475
2023-05-10T06:21:10.165Z,266
2023-05-10T06:22:10.154Z,658
2023-05-10T06:23:10.146Z,449
2023-05-10T06:24:10.135Z,395
2023-05-10T06:25:10.141Z,516
2023-05-10T06:26:10.119Z,442
2023-05-10T06:27:10.120Z,459
2023-05-10T06:28:10.100Z,668
2023-05-10T06:29:10.086Z,679
2023-05-10T06:30:13.201Z,575
2023-05-10T06:31:10.143Z,504
2023-05-10T06:32:10.079Z,338
2023-05-10T06:33:10.142Z,470
2023-05-10T06:34:10.026Z,463
2023-05-10T06:35:10.032Z,537
2023-05-10T06:36:10.219Z,680
2023-05-10T06:37:10.001Z,803
2023-05-10T06:38:09.990Z,797
2023-05-10T06:39:09.981Z,681
2023-05-10T06:40:09.968Z,610
2023-05-10T06:41:09.961Z,560
2023-05-10T06:42:09.960Z,505
2023-05-10T06:43:09.934Z,524
2023-05-10T06:44:09.923Z,524
2023-05-10T06:45:09.913Z,481
2023-05-10T06:46:10.002Z,510
2023-05-10T06:47:09.890Z,572
2023-05-10T06:48:09.931Z,623
2023-05-10T06:49:09.872Z,680
2023-05-10T06:50:09.876Z,690
2023-05-10T06:51:09.852Z,800
2023-05-10T06:52:09.840Z,748
2023-05-10T06:53:09.831Z,724
2023-05-10T06:54:09.818Z,724
2023-05-10T06:55:09.863Z,698
2023-05-10T06:56:10.006Z,654
2023-05-10T06:57:23.392Z,596
2023-05-10T06:58:10.810Z,557
2023-05-10T06:59:09.805Z,548
2023-05-10T07:00:09.989Z,524
2023-05-10T07:01:10.039Z,514
2023-05-10T07:02:09.773Z,538
2023-05-10T07:03:09.748Z,584
2023-05-10T07:04:09.734Z,636
2023-05-10T07:05:09.703Z,612
2023-05-10T07:06:15.683Z,625
2023-05-10T07:07:10.723Z,621
2023-05-10T07:08:09.674Z,641
2023-05-10T07:09:09.664Z,541
2023-05-10T07:10:09.660Z,752
2023-05-10T07:11:09.645Z,824
2023-05-10T07:12:11.565Z,718
2023-05-10T07:13:09.723Z,609
2023-05-10T07:14:09.614Z,622
2023-05-10T07:15:09.612Z,582
2023-05-10T07:16:09.617Z,583
2023-05-10T07:17:09.635Z,555
2023-05-10T07:18:09.696Z,660
2023-05-10T07:19:09.566Z,603
2023-05-10T07:20:09.576Z,685
2023-05-10T07:21:09.816Z,1091
2023-05-10T07:22:09.539Z,3552
2023-05-10T07:23:09.519Z,5065
2023-05-10T07:24:09.508Z,2908
2023-05-10T07:25:09.710Z,2713
2023-05-10T07:26:09.490Z,2729
2023-05-10T07:27:09.513Z,2131
2023-05-10T07:28:09.479Z,1275
2023-05-10T07:29:09.469Z,1280
2023-05-10T07:30:09.448Z,1139
2023-05-10T07:31:09.512Z,857
2023-05-10T07:32:09.472Z,865
2023-05-10T07:33:09.498Z,930
2023-05-10T07:34:09.430Z,802
2023-05-10T07:35:09.398Z,596
2023-05-10T07:36:09.421Z,566
2023-05-10T07:37:09.401Z,489
2023-05-10T07:38:09.368Z,484
2023-05-10T07:39:09.360Z,500
2023-05-10T07:40:09.341Z,486
2023-05-10T07:41:09.338Z,393
2023-05-10T07:42:09.325Z,384
2023-05-10T07:43:09.319Z,501
2023-05-10T07:44:09.295Z,661
2023-05-10T07:45:09.292Z,870
2023-05-10T07:46:09.301Z,873
2023-05-10T07:47:09.277Z,1368
2023-05-10T07:48:09.294Z,2601
2023-05-10T07:49:09.250Z,3539
2023-05-10T07:50:09.247Z,3644
2023-05-10T07:51:09.230Z,3020
2023-05-10T07:52:09.235Z,3846
2023-05-10T07:53:09.206Z,4236
2023-05-10T07:54:09.195Z,4534
2023-05-10T07:55:09.206Z,5836
2023-05-10T07:56:09.172Z,3395
2023-05-10T07:57:09.160Z,5116
2023-05-10T07:58:09.159Z,1788
2023-05-10T07:59:10.767Z,2854
2023-05-10T08:00:09.130Z,3961
2023-05-10T08:01:09.127Z,1843
2023-05-10T08:02:09.147Z,4505
2023-05-10T08:03:09.168Z,1427
2023-05-10T08:04:09.206Z,962
2023-05-10T08:05:09.091Z,864
2023-05-10T08:06:09.067Z,832
2023-05-10T08:07:09.060Z,1017
2023-05-10T08:08:09.081Z,1545
2023-05-10T08:09:09.040Z,1238
2023-05-10T08:10:09.026Z,1680
2023-05-10T08:11:09.229Z,2160
2023-05-10T08:12:09.036Z,2009
2023-05-10T08:13:09.002Z,2672
2023-05-10T08:14:08.991Z,1766
2023-05-10T08:15:08.980Z,1056
2023-05-10T08:16:09.003Z,1020
2023-05-10T08:17:08.959Z,1084
2023-05-10T08:18:08.961Z,1134
2023-05-10T08:19:09.236Z,1212
2023-05-10T08:20:08.926Z,1097
2023-05-10T08:21:08.918Z,849
2023-05-10T08:22:08.909Z,663
2023-05-10T08:23:08.901Z,575
2023-05-10T08:24:08.907Z,720
2023-05-10T08:25:08.875Z,790
2023-05-10T08:26:08.870Z,616
2023-05-10T08:27:08.861Z,566
2023-05-10T08:28:09.903Z,574
2023-05-10T08:29:08.837Z,611
2023-05-10T08:30:08.830Z,420
2023-05-10T08:31:09.042Z,378
2023-05-10T08:32:08.807Z,450
2023-05-10T08:33:10.565Z,438
2023-05-10T08:34:08.782Z,360
2023-05-10T08:35:08.794Z,364
2023-05-10T08:36:08.770Z,400
2023-05-10T08:37:08.751Z,437
2023-05-10T08:38:08.746Z,443
2023-05-10T08:39:16.211Z,451
2023-05-10T08:40:09.812Z,574
2023-05-10T08:41:08.713Z,676
2023-05-10T08:42:08.712Z,778
2023-05-10T08:43:08.686Z,1071
2023-05-10T08:44:08.684Z,4441
2023-05-10T08:45:08.674Z,4742
2023-05-10T08:46:08.748Z,5180
2023-05-10T08:47:08.809Z,4604
2023-05-10T08:48:08.686Z,5478
2023-05-10T08:49:08.636Z,2393
2023-05-10T08:50:08.623Z,25728.
2023-05-10T08:51:08.606Z,2022
2023-05-10T08:52:08.687Z,5068
2023-05-10T08:53:08.610Z,5225
2023-05-10T08:54:08.577Z,1968
2023-05-10T08:55:08.563Z,2310
2023-05-10T08:56:08.571Z,1452
2023-05-10T08:57:08.562Z,954
2023-05-10T08:58:08.534Z,1025
2023-05-10T08:59:08.524Z,1696
2023-05-10T09:00:08.512Z,1152
2023-05-10T09:01:08.550Z,1127
2023-05-10T09:02:08.510Z,1622
2023-05-10T09:03:08.536Z,3753
2023-05-10T09:04:08.583Z,3580
2023-05-10T09:05:08.589Z,2156
2023-05-10T09:06:08.453Z,5052
2023-05-10T09:07:08.451Z,4739
2023-05-10T09:08:08.437Z,3440
2023-05-10T09:09:08.421Z,2691
2023-05-10T09:10:08.415Z,2873
2023-05-10T09:11:08.400Z,2508
2023-05-10T09:12:08.411Z,1904
2023-05-10T09:13:08.386Z,1750
2023-05-10T09:14:08.374Z,3318
2023-05-10T09:15:08.361Z,3331
2023-05-10T09:16:20.401Z,4620
2023-05-10T09:17:09.439Z,4880
2023-05-10T09:18:08.396Z,4284
2023-05-10T09:19:08.530Z,3382
2023-05-10T09:20:08.310Z,1718
2023-05-10T09:21:08.299Z,4550
2023-05-10T09:22:08.334Z,1932
2023-05-10T09:23:08.293Z,3424
2023-05-10T09:24:08.282Z,4707
2023-05-10T09:25:08.271Z,1904
2023-05-10T09:26:08.262Z,1433
2023-05-10T09:27:08.248Z,1259
2023-05-10T09:28:08.250Z,1114
2023-05-10T09:29:08.214Z,1004
2023-05-10T09:30:08.408Z,906
2023-05-10T09:31:08.237Z,792
2023-05-10T09:32:08.188Z,717
2023-05-10T09:33:08.190Z,718
2023-05-10T09:34:08.168Z,712
2023-05-10T09:35:08.169Z,716
2023-05-10T09:36:08.146Z,770
2023-05-10T09:37:08.141Z,779
2023-05-10T09:38:08.135Z,878
2023-05-10T09:39:08.111Z,862
2023-05-10T09:40:08.130Z,908
2023-05-10T09:41:08.096Z,698
2023-05-10T09:42:08.093Z,648
2023-05-10T09:43:08.083Z,701
2023-05-10T09:44:08.306Z,709
2023-05-10T09:45:08.053Z,776
2023-05-10T09:46:08.076Z,900
2023-05-10T09:47:08.039Z,991
2023-05-10T09:48:08.123Z,1069
2023-05-10T09:49:08.010Z,993
2023-05-10T09:50:07.995Z,717
2023-05-10T09:51:08.199Z,509
2023-05-10T09:52:07.982Z,338
2023-05-10T09:53:07.962Z,283
2023-05-10T09:54:07.977Z,294
2023-05-10T09:55:07.954Z,301
2023-05-10T09:56:07.939Z,303
2023-05-10T09:57:07.943Z,308
2023-05-10T09:58:07.924Z,329
2023-05-10T09:59:07.909Z,360
2023-05-10T10:00:07.917Z,399
2023-05-10T10:01:07.955Z,452
2023-05-10T10:02:08.083Z,516
2023-05-10T10:03:08.004Z,575
2023-05-10T10:04:07.857Z,622
2023-05-10T10:05:08.081Z,666
2023-05-10T10:06:15.841Z,752
2023-05-10T10:07:08.863Z,730
2023-05-10T10:08:07.813Z,835
2023-05-10T10:09:07.808Z,1162
2023-05-10T10:10:07.791Z,1459
2023-05-10T10:11:07.788Z,1130
2023-05-10T10:12:07.769Z,1090
2023-05-10T10:13:07.762Z,1124
2023-05-10T10:14:07.750Z,1187
2023-05-10T10:15:07.746Z,1347
2023-05-10T10:16:07.789Z,1491
2023-05-10T10:17:08.919Z,1539
2023-05-10T10:18:07.828Z,1472
2023-05-10T10:19:07.697Z,1385
2023-05-10T10:20:09.336Z,1372
2023-05-10T10:21:07.679Z,1510
2023-05-10T10:22:07.686Z,1814
2023-05-10T10:23:07.659Z,2041
2023-05-10T10:24:07.647Z,2160
2023-05-10T10:25:07.639Z,1865
2023-05-10T10:26:07.631Z,1536
2023-05-10T10:27:07.826Z,1376
2023-05-10T10:28:07.607Z,1188
2023-05-10T10:29:07.598Z,1085
2023-05-10T10:30:07.584Z,1248
2023-05-10T10:31:07.666Z,1350
2023-05-10T10:32:07.584Z,14368.
2023-05-10T10:33:16.602Z,1632
2023-05-10T10:34:08.573Z,1827
2023-05-10T10:35:07.536Z,1596
2023-05-10T10:36:07.520Z,11884.
2023-05-10T10:37:07.724Z,1006
2023-05-10T10:38:07.502Z,966
2023-05-10T10:39:07.495Z,1070
2023-05-10T10:40:07.484Z,1096
2023-05-10T10:41:07.474Z,947
2023-05-10T10:42:07.461Z,886
2023-05-10T10:43:07.448Z,936
2023-05-10T10:44:07.438Z,966
2023-05-10T10:45:07.427Z,958
2023-05-10T10:46:07.418Z,9472.
2023-05-10T10:47:07.518Z,9476.
2023-05-10T10:48:07.536Z,1044
2023-05-10T10:49:07.380Z,1051
2023-05-10T10:50:07.380Z,1117
2023-05-10T10:51:07.373Z,1171
2023-05-10T10:52:09.059Z,1135
2023-05-10T10:53:07.383Z,1102
2023-05-10T10:54:07.337Z,1128
2023-05-10T10:55:07.586Z,22976.00
2023-05-10T10:56:07.321Z,14784.
2023-05-10T10:57:07.309Z,14168.
2023-05-10T10:58:07.296Z,13572.
2023-05-10T10:59:07.283Z,13164.
2023-05-10T11:00:07.277Z,12280.
2023-05-10T11:01:07.297Z,10992.
2023-05-10T11:02:07.256Z,9324.
2023-05-10T11:03:07.320Z,7932.
2023-05-10T11:04:07.342Z,7244.
2023-05-10T11:05:07.222Z,6656.
2023-05-10T11:06:07.223Z,6344.
2023-05-10T11:07:07.199Z,6512.
2023-05-10T11:08:07.194Z,7060.
2023-05-10T11:09:07.193Z,793
2023-05-10T11:10:07.174Z,8656.
2023-05-10T11:11:07.165Z,9380.
2023-05-10T11:12:07.149Z,1222
2023-05-10T11:13:07.187Z,13700.
2023-05-10T11:14:07.130Z,26016.
2023-05-10T11:15:07.118Z,25984.
2023-05-10T11:16:07.113Z,24224.
2023-05-10T11:17:07.144Z,20576.
2023-05-10T11:18:07.096Z,14612.
2023-05-10T11:19:07.164Z,12192.
2023-05-10T11:20:07.081Z,12036.
2023-05-10T11:21:07.061Z,1241
2023-05-10T11:22:07.047Z,1191
2023-05-10T11:23:07.032Z,13224.
2023-05-10T11:24:07.255Z,16832.
2023-05-10T11:25:07.014Z,21600.
2023-05-10T11:26:07.002Z,19040.
2023-05-10T11:27:07.029Z,1619
2023-05-10T11:28:06.997Z,15488.
2023-05-10T11:29:06.981Z,15008.
2023-05-10T11:30:06.962Z,15328.
2023-05-10T11:31:06.983Z,20672.
2023-05-10T11:32:06.941Z,19424.
2023-05-10T11:33:06.984Z,1833
2023-05-10T11:34:06.923Z,16224.
2023-05-10T11:35:06.911Z,1664
2023-05-10T11:36:06.923Z,1916
2023-05-10T11:37:06.889Z,17280.
2023-05-10T11:38:07.089Z,15200.
2023-05-10T11:39:06.918Z,15936.
2023-05-10T11:40:06.863Z,16224.
2023-05-10T11:41:06.852Z,17152.
2023-05-10T11:42:06.843Z,16512.
2023-05-10T11:43:06.830Z,16000.
2023-05-10T11:44:07.036Z,14556.
2023-05-10T11:45:06.813Z,12708.
2023-05-10T11:46:06.848Z,13412.
2023-05-10T11:47:06.796Z,14288.
2023-05-10T11:48:06.868Z,14880.
2023-05-10T11:49:06.773Z,15648.
2023-05-10T11:50:06.779Z,15808.
2023-05-10T11:51:06.762Z,15328.
2023-05-10T11:52:06.762Z,15808.
2023-05-10T11:53:06.732Z,15744.
2023-05-10T11:54:06.726Z,16544.
2023-05-10T11:55:06.712Z,17056.
2023-05-10T11:56:06.710Z,16064.
2023-05-10T11:57:06.722Z,15872.
2023-05-10T11:58:06.689Z,16160.
2023-05-10T11:59:06.666Z,16064.
2023-05-10T12:00:06.660Z,15520.
2023-05-10T12:01:06.648Z,14400.
2023-05-10T12:02:06.637Z,14008.
2023-05-10T12:03:06.661Z,13496.
2023-05-10T12:04:06.918Z,12864.
2023-05-10T12:05:06.708Z,12184.
2023-05-10T12:06:06.622Z,11676.
2023-05-10T12:07:08.143Z,11016.
2023-05-10T12:08:06.599Z,10640.
2023-05-10T12:09:06.563Z,10624.
2023-05-10T12:10:06.559Z,9956.
2023-05-10T12:11:06.568Z,8712.
2023-05-10T12:12:06.528Z,7628.
2023-05-10T12:13:06.520Z,7584.
2023-05-10T12:14:06.510Z,8036.
2023-05-10T12:15:06.499Z,8820.
2023-05-10T12:16:06.623Z,9476.
2023-05-10T12:17:06.480Z,9876.
2023-05-10T12:18:06.504Z,10044.
2023-05-10T12:19:06.715Z,9908.
2023-05-10T12:20:06.447Z,9720.
2023-05-10T12:21:06.445Z,9652.
2023-05-10T12:22:06.448Z,9636.
2023-05-10T12:23:06.462Z,9700.
2023-05-10T12:24:06.489Z,9716.
2023-05-10T12:25:06.395Z,9508.
2023-05-10T12:26:06.593Z,9292.
2023-05-10T12:27:06.379Z,9056.
2023-05-10T12:28:06.369Z,8868.
2023-05-10T12:29:06.368Z,8820.
2023-05-10T12:30:06.350Z,8812.
2023-05-10T12:31:06.334Z,8836.
2023-05-10T12:32:06.376Z,892
2023-05-10T12:33:06.354Z,9208.
2023-05-10T12:34:06.304Z,9648.
2023-05-10T12:35:06.304Z,10128.
2023-05-10T12:36:06.282Z,10544.
2023-05-10T12:37:06.271Z,10848.
2023-05-10T12:38:06.260Z,11148.
2023-05-10T12:39:07.553Z,11456.
2023-05-10T12:40:06.265Z,11828.
2023-05-10T12:41:06.287Z,12180.
2023-05-10T12:42:06.227Z,12408.
2023-05-10T12:43:06.210Z,12464.
2023-05-10T12:44:06.204Z,12644.
2023-05-10T12:45:06.193Z,12936.
2023-05-10T12:46:06.224Z,13064.
2023-05-10T12:47:06.189Z,13064.
2023-05-10T12:48:06.214Z,13460.
2023-05-10T12:49:09.437Z,14144.
2023-05-10T12:50:06.142Z,14816.
2023-05-10T12:51:06.126Z,15808.
2023-05-10T12:52:06.132Z,15168.
2023-05-10T12:53:06.107Z,15200.
2023-05-10T12:54:06.120Z,1507
2023-05-10T12:55:06.095Z,16128.
2023-05-10T12:56:06.098Z,15776.
2023-05-10T12:57:06.077Z,15424.
2023-05-10T12:58:07.416Z,13960.
2023-05-10T12:59:06.047Z,13128.
2023-05-10T13:00:06.034Z,14304.
2023-05-10T13:01:06.125Z,15200.
2023-05-10T13:02:06.012Z,13228.
2023-05-10T13:03:06.038Z,12340.
2023-05-10T13:04:06.054Z,11960.
2023-05-10T13:05:06.166Z,11920.
2023-05-10T13:06:05.970Z,12316.
2023-05-10T13:07:05.966Z,12944.
2023-05-10T13:08:05.949Z,13524.
2023-05-10T13:09:05.943Z,13988.
2023-05-10T13:10:05.929Z,14160.
2023-05-10T13:11:05.921Z,14004.
2023-05-10T13:12:07.131Z,13736.
2023-05-10T13:13:05.894Z,13800.
2023-05-10T13:14:05.907Z,13952.
2023-05-10T13:15:05.879Z,13816.
2023-05-10T13:16:07.516Z,15008.
2023-05-10T13:17:05.933Z,15616.
2023-05-10T13:18:05.869Z,15904.
2023-05-10T13:19:05.896Z,17504.
2023-05-10T13:20:05.844Z,18080.
2023-05-10T13:21:05.813Z,19136.
2023-05-10T13:22:05.810Z,18176.
2023-05-10T13:23:05.797Z,17504.
2023-05-10T13:24:05.785Z,16960.
2023-05-10T13:25:05.777Z,16448.
2023-05-10T13:26:05.757Z,15712.
2023-05-10T13:27:05.773Z,15712.
2023-05-10T13:28:05.760Z,15104.
2023-05-10T13:29:05.731Z,14752.
2023-05-10T13:30:05.718Z,14464.
2023-05-10T13:31:05.758Z,15456.
2023-05-10T13:32:05.705Z,14048.
2023-05-10T13:33:05.706Z,13616.
2023-05-10T13:34:05.675Z,13620.
2023-05-10T13:35:05.672Z,13676.
2023-05-10T13:36:05.664Z,1378
2023-05-10T13:37:05.670Z,14208.
2023-05-10T13:38:05.642Z,14816.
2023-05-10T13:39:05.624Z,15808.
2023-05-10T13:40:05.617Z,17248.
2023-05-10T13:41:05.622Z,17024.
2023-05-10T13:42:05.618Z,16608.
2023-05-10T13:43:05.586Z,13632.
2023-05-10T13:44:05.600Z,13284.
2023-05-10T13:45:05.594Z,15200.
2023-05-10T13:46:05.572Z,15360.
2023-05-10T13:47:05.547Z,15392.
2023-05-10T13:48:05.626Z,15200.
2023-05-10T13:49:05.527Z,14528.
2023-05-10T13:50:05.516Z,14144.
2023-05-10T13:51:05.518Z,12824.
2023-05-10T13:52:05.492Z,12204.
2023-05-10T13:53:05.491Z,1388
2023-05-10T13:54:05.477Z,11932.
2023-05-10T13:55:05.471Z,13600.
2023-05-10T13:56:05.454Z,14048.
2023-05-10T13:57:05.455Z,13824.
2023-05-10T13:58:05.451Z,13408.
2023-05-10T13:59:05.430Z,13024.
2023-05-10T14:00:05.494Z,12512.
2023-05-10T14:01:05.410Z,12256.
2023-05-10T14:02:05.493Z,12032.
2023-05-10T14:03:05.419Z,11680.
2023-05-10T14:04:05.477Z,9184.
2023-05-10T14:05:05.363Z,11384.
2023-05-10T14:06:05.368Z,11488.
2023-05-10T14:07:05.355Z,11396.
2023-05-10T14:08:05.348Z,9200.
2023-05-10T14:09:05.325Z,8960.
2023-05-10T14:10:05.313Z,8964.
2023-05-10T14:11:05.304Z,8892.
2023-05-10T14:12:05.294Z,8720.
2023-05-10T14:13:05.285Z,8684.
2023-05-10T14:14:05.273Z,8688.
2023-05-10T14:15:05.266Z,8624.
2023-05-10T14:16:05.372Z,8304.
2023-05-10T14:17:05.250Z,8168.
2023-05-10T14:18:05.278Z,7952.
2023-05-10T14:19:05.264Z,7796.
2023-05-10T14:20:05.294Z,7632.
2023-05-10T14:21:05.212Z,7716.
2023-05-10T14:22:05.189Z,7976.
2023-05-10T14:23:05.176Z,841
2023-05-10T14:24:05.376Z,860
2023-05-10T14:25:05.168Z,8600.
2023-05-10T14:26:05.351Z,8476.
2023-05-10T14:27:05.145Z,834
2023-05-10T14:28:05.175Z,8448.
2023-05-10T14:29:05.118Z,8256.
2023-05-10T14:30:05.150Z,7628.
2023-05-10T14:31:05.095Z,7772.
2023-05-10T14:32:05.174Z,8232.
2023-05-10T14:33:05.108Z,8672.
2023-05-10T14:34:05.065Z,9476.
2023-05-10T14:35:05.071Z,10164.
2023-05-10T14:36:05.053Z,1049
2023-05-10T14:37:05.042Z,10632.
2023-05-10T14:38:05.036Z,10436.
2023-05-10T14:39:05.022Z,10200.
2023-05-10T14:40:05.014Z,9852.
2023-05-10T14:41:05.004Z,9352.
2023-05-10T14:42:04.999Z,866
2023-05-10T14:43:04.978Z,802
2023-05-10T14:44:04.963Z,9524.
2023-05-10T14:45:04.961Z,7220.
2023-05-10T14:46:05.019Z,6524.
2023-05-10T14:47:04.935Z,6096.
2023-05-10T14:48:04.981Z,6120.
2023-05-10T14:49:04.912Z,6624.
2023-05-10T14:50:04.907Z,7536.
2023-05-10T14:51:04.894Z,8552.
2023-05-10T14:52:04.890Z,9480.
2023-05-10T14:53:04.878Z,10260.
2023-05-10T14:54:04.862Z,12256.
2023-05-10T14:55:04.870Z,12192.
2023-05-10T14:56:04.837Z,11548.
2023-05-10T14:57:04.822Z,12128.
2023-05-10T14:58:04.812Z,11936.
2023-05-10T14:59:04.811Z,9932.
2023-05-10T15:00:04.797Z,9436.
2023-05-10T15:01:04.827Z,9384.
2023-05-10T15:02:04.770Z,9504.
2023-05-10T15:03:04.803Z,11552.
2023-05-10T15:04:04.766Z,12096.
2023-05-10T15:05:04.743Z,11388.
2023-05-10T15:06:04.735Z,11288.
2023-05-10T15:07:04.719Z,13216.
2023-05-10T15:08:04.712Z,12448.
2023-05-10T15:09:04.706Z,10676.
2023-05-10T15:10:04.759Z,8856.
2023-05-10T15:11:04.686Z,8688.
2023-05-10T15:12:04.665Z,863
2023-05-10T15:13:04.651Z,8292.
2023-05-10T15:14:04.661Z,7704.
2023-05-10T15:15:04.630Z,7264.
2023-05-10T15:16:04.647Z,6992.
2023-05-10T15:17:04.611Z,6724.
2023-05-10T15:18:04.828Z,6292.
2023-05-10T15:19:04.658Z,608
2023-05-10T15:20:04.745Z,600
2023-05-10T15:21:04.575Z,576
2023-05-10T15:22:04.575Z,558
2023-05-10T15:23:04.566Z,535
2023-05-10T15:24:04.541Z,504
2023-05-10T15:25:04.537Z,4652.
2023-05-10T15:26:04.516Z,4172.
2023-05-10T15:27:04.512Z,3712.
2023-05-10T15:28:04.498Z,335
2023-05-10T15:29:04.490Z,3160.
2023-05-10T15:30:04.558Z,3260.
2023-05-10T15:31:04.510Z,3768.
2023-05-10T15:32:04.459Z,4892.
2023-05-10T15:33:04.516Z,4740.
2023-05-10T15:34:04.452Z,506
2023-05-10T15:35:04.436Z,5504.
2023-05-10T15:36:04.459Z,5792.
2023-05-10T15:37:04.410Z,5920.
2023-05-10T15:38:04.395Z,6028.
2023-05-10T15:39:04.384Z,6028.
2023-05-10T15:40:04.567Z,5748.
2023-05-10T15:41:04.367Z,554
2023-05-10T15:42:04.356Z,5428.
2023-05-10T15:43:04.344Z,5456.
2023-05-10T15:44:04.344Z,543
2023-05-10T15:45:04.322Z,536
2023-05-10T15:46:04.312Z,526
2023-05-10T15:47:04.396Z,5040.
2023-05-10T15:48:04.342Z,487
2023-05-10T15:49:04.281Z,486
2023-05-10T15:50:04.299Z,493
2023-05-10T15:51:04.259Z,488
2023-05-10T15:52:04.265Z,4732.
2023-05-10T15:53:04.246Z,446
2023-05-10T15:54:07.788Z,421
2023-05-10T15:55:04.235Z,399
2023-05-10T15:56:04.208Z,3824.
2023-05-10T15:57:04.218Z,3644.
2023-05-10T15:58:04.188Z,3496.
2023-05-10T15:59:04.182Z,3372.
2023-05-10T16:00:04.171Z,3240.
2023-05-10T16:01:04.183Z,3036.
2023-05-10T16:02:04.171Z,278
2023-05-10T16:03:04.233Z,255
2023-05-10T16:04:04.134Z,2404.
2023-05-10T16:05:04.116Z,2312.
2023-05-10T16:06:04.106Z,2252.
2023-05-10T16:07:04.102Z,2256.
2023-05-10T16:08:04.104Z,2292.
2023-05-10T16:09:04.081Z,234
2023-05-10T16:10:04.073Z,238
2023-05-10T16:11:04.064Z,242
2023-05-10T16:12:04.050Z,238
2023-05-10T16:13:04.050Z,232
2023-05-10T16:14:05.290Z,2348.
2023-05-10T16:15:04.022Z,2496.
2023-05-10T16:16:04.049Z,2604.
2023-05-10T16:17:04.205Z,2692.
2023-05-10T16:18:04.051Z,2736.
2023-05-10T16:19:04.037Z,2756.
2023-05-10T16:20:03.971Z,2772.
2023-05-10T16:21:03.953Z,2800.
2023-05-10T16:22:03.951Z,2820.
2023-05-10T16:23:03.933Z,2816.
2023-05-10T16:24:03.940Z,2832.
2023-05-10T16:25:03.922Z,2868.
2023-05-10T16:26:03.896Z,2900.
2023-05-10T16:27:04.094Z,2888.
2023-05-10T16:28:03.876Z,2860.
2023-05-10T16:29:03.862Z,2784.
2023-05-10T16:30:03.862Z,2724.
2023-05-10T16:31:03.870Z,2700.
2023-05-10T16:32:03.839Z,2712.
2023-05-10T16:33:03.858Z,2688.
2023-05-10T16:34:03.818Z,2704.
2023-05-10T16:35:03.810Z,2744.
2023-05-10T16:36:03.794Z,2724.
2023-05-10T16:37:03.778Z,2708.
2023-05-10T16:38:03.766Z,2716.
2023-05-10T16:39:03.754Z,2708.
2023-05-10T16:40:03.762Z,2672.
2023-05-10T16:41:03.744Z,257
2023-05-10T16:42:03.718Z,246
2023-05-10T16:43:03.732Z,2376.
2023-05-10T16:44:03.726Z,2316.
2023-05-10T16:45:03.702Z,2288.
2023-05-10T16:46:03.694Z,2260.
2023-05-10T16:47:03.671Z,2232.
2023-05-10T16:48:03.739Z,2212.
2023-05-10T16:49:03.649Z,2216.
2023-05-10T16:50:03.636Z,2236.
2023-05-10T16:51:03.624Z,231
2023-05-10T16:52:03.813Z,2380.
2023-05-10T16:53:03.602Z,2440.
2023-05-10T16:54:03.587Z,2464.
2023-05-10T16:55:03.578Z,2488.
2023-05-10T16:56:03.586Z,2520.
2023-05-10T16:57:03.566Z,2568.
2023-05-10T16:58:03.548Z,2592.
2023-05-10T16:59:03.715Z,2604.
2023-05-10T17:00:03.536Z,2608.
2023-05-10T17:01:03.516Z,2632.
2023-05-10T17:02:03.571Z,2652.
2023-05-10T17:03:03.581Z,2640.
2023-05-10T17:04:03.556Z,2572.
2023-05-10T17:05:03.475Z,2436.
2023-05-10T17:06:03.474Z,2308.
2023-05-10T17:07:03.457Z,2268.
2023-05-10T17:08:03.464Z,2348.
2023-05-10T17:09:03.434Z,2516.
2023-05-10T17:10:03.431Z,2740.
2023-05-10T17:11:03.417Z,3068.
2023-05-10T17:12:03.425Z,3436.
2023-05-10T17:13:03.392Z,3752.
2023-05-10T17:14:03.394Z,3916.
2023-05-10T17:15:03.399Z,3940.